createdAt,value
2023-05-10T00:00:23.523Z,52.91
2023-05-10T00:03:08.979Z,53.08
2023-05-10T00:05:36.608Z,53.01
2023-05-10T00:08:04.339Z,53.30
2023-05-10T00:10:31.945Z,53.49
2023-05-10T00:12:59.567Z,53.50
2023-05-10T00:15:27.233Z,53.63
2023-05-10T00:17:54.939Z,53.58
2023-05-10T00:20:22.624Z,53.77
2023-05-10T00:22:50.263Z,53.99
2023-05-10T00:25:17.897Z,54.09
2023-05-10T00:27:45.714Z,54.07
2023-05-10T00:30:13.526Z,54.02
2023-05-10T00:32:41.360Z,54.16
2023-05-10T00:35:09.455Z,54.10
2023-05-10T00:37:37.137Z,54.21
2023-05-10T00:40:05.982Z,53.82
2023-05-10T00:42:33.588Z,54.28
2023-05-10T00:45:01.381Z,54.29
2023-05-10T00:47:29.138Z,54.53
2023-05-10T00:49:56.941Z,54.64
2023-05-10T00:52:24.749Z,54.59
2023-05-10T00:54:53.314Z,54.71
2023-05-10T00:57:20.996Z,54.74
2023-05-10T00:59:49.138Z,54.95
2023-05-10T01:02:16.795Z,54.94
2023-05-10T01:04:44.818Z,55.00
2023-05-10T01:07:12.521Z,55.30
2023-05-10T01:09:40.269Z,55.34
2023-05-10T01:12:08.435Z,55.44
2023-05-10T01:14:37.358Z,55.64
2023-05-10T01:17:06.468Z,55.73
2023-05-10T01:19:36.059Z,55.77
2023-05-10T01:22:16.009Z,56.06
2023-05-10T01:25:21.371Z,56.25
2023-05-10T01:27:58.993Z,56.59
2023-05-10T01:31:00.763Z,56.70
2023-05-10T01:33:42.596Z,56.87
2023-05-10T01:36:20.202Z,57.05
2023-05-10T01:39:22.917Z,57.54
2023-05-10T01:41:51.993Z,57.64
2023-05-10T01:44:44.040Z,57.79
2023-05-10T01:47:38.275Z,58.28
2023-05-10T01:50:07.393Z,58.57
2023-05-10T01:52:38.955Z,58.36
2023-05-10T01:55:09.268Z,58.88
2023-05-10T01:57:37.869Z,58.65
2023-05-10T02:00:06.254Z,58.88
2023-05-10T02:02:35.505Z,59.25
2023-05-10T02:05:04.438Z,59.01
2023-05-10T02:07:32.029Z,59.26
2023-05-10T02:09:59.618Z,59.10
2023-05-10T02:12:28.237Z,59.48
2023-05-10T02:14:55.828Z,59.47
2023-05-10T02:17:23.604Z,59.61
2023-05-10T02:19:51.255Z,59.99
2023-05-10T02:22:18.849Z,59.97
2023-05-10T02:24:46.569Z,60.04
2023-05-10T02:27:14.186Z,60.26
2023-05-10T02:29:41.791Z,60.20
2023-05-10T02:32:10.126Z,60.42
2023-05-10T02:34:38.328Z,60.26
2023-05-10T02:37:06.997Z,60.65
2023-05-10T02:39:34.675Z,60.60
2023-05-10T02:42:02.577Z,60.64
2023-05-10T02:44:32.108Z,60.93
2023-05-10T02:47:00.008Z,61.02
2023-05-10T02:49:27.696Z,60.72
2023-05-10T02:51:57.845Z,61.10
2023-05-10T02:54:30.863Z,60.91
2023-05-10T02:57:00.487Z,61.22
2023-05-10T02:59:28.320Z,61.19
2023-05-10T03:01:56.159Z,61.07
2023-05-10T03:04:24.077Z,61.11
2023-05-10T03:06:51.779Z,61.57
2023-05-10T03:09:19.548Z,61.68
2023-05-10T03:12:03.176Z,61.17
2023-05-10T03:15:02.534Z,61.71
2023-05-10T03:17:48.027Z,61.81
2023-05-10T03:20:42.109Z,61.86
2023-05-10T03:23:19.022Z,62.36
2023-05-10T03:25:48.132Z,62.38
2023-05-10T03:28:17.979Z,62.22
2023-05-10T03:30:45.597Z,62.47
2023-05-10T03:33:14.266Z,62.31
2023-05-10T03:35:42.036Z,62.32
2023-05-10T03:38:09.663Z,62.48
2023-05-10T03:40:37.669Z,62.30
2023-05-10T03:43:05.286Z,62.21
2023-05-10T03:45:32.997Z,62.67
2023-05-10T03:48:00.717Z,63.19
2023-05-10T03:50:28.667Z,63.16
2023-05-10T03:52:56.575Z,63.09
2023-05-10T03:55:24.585Z,63.32
2023-05-10T03:57:52.224Z,63.38
2023-05-10T04:00:20.176Z,63.21
2023-05-10T04:02:47.795Z,63.73
2023-05-10T04:05:15.831Z,63.42
2023-05-10T04:07:45.246Z,63.61
2023-05-10T04:10:13.143Z,63.64
2023-05-10T04:12:40.913Z,63.40
2023-05-10T04:15:09.361Z,63.42
2023-05-10T04:17:37.117Z,63.31
2023-05-10T04:20:05.663Z,63.28
2023-05-10T04:22:33.459Z,63.12
2023-05-10T04:25:01.072Z,63.05
2023-05-10T04:27:28.752Z,62.89
2023-05-10T04:29:56.337Z,63.23
2023-05-10T04:32:24.307Z,63.00
2023-05-10T04:34:52.361Z,63.04
2023-05-10T04:37:20.965Z,62.92
2023-05-10T04:39:48.707Z,62.82
2023-05-10T04:42:16.473Z,63.23
2023-05-10T04:44:44.596Z,63.04
2023-05-10T04:47:14.185Z,63.01
2023-05-10T04:49:41.798Z,63.10
2023-05-10T04:52:09.450Z,63.00
2023-05-10T04:54:37.074Z,63.04
2023-05-10T04:57:04.694Z,62.96
2023-05-10T04:59:32.330Z,62.97
2023-05-10T05:02:00.066Z,62.93
2023-05-10T05:04:27.807Z,62.94
2023-05-10T05:06:55.516Z,62.82
2023-05-10T05:09:23.126Z,62.72
2023-05-10T05:11:50.873Z,62.25
2023-05-10T05:14:18.556Z,61.60
2023-05-10T05:16:46.174Z,61.46
2023-05-10T05:19:13.784Z,61.21
2023-05-10T05:21:41.646Z,60.73
2023-05-10T05:24:09.622Z,60.37
2023-05-10T05:26:37.767Z,59.92
2023-05-10T05:29:05.614Z,59.84
2023-05-10T05:31:33.342Z,59.28
2023-05-10T05:34:01.117Z,58.84
2023-05-10T05:36:28.848Z,58.49
2023-05-10T05:38:56.441Z,58.62
2023-05-10T05:41:25.617Z,57.85
2023-05-10T05:43:53.223Z,57.79
2023-05-10T05:46:20.959Z,57.77
2023-05-10T05:48:48.626Z,57.53
2023-05-10T05:51:16.279Z,57.37
2023-05-10T05:53:44.017Z,57.08
2023-05-10T05:56:11.704Z,56.57
2023-05-10T05:58:39.466Z,56.15
2023-05-10T06:01:07.724Z,55.95
2023-05-10T06:03:35.586Z,55.34
2023-05-10T06:06:03.440Z,54.50
2023-05-10T06:08:31.268Z,55.32
2023-05-10T06:10:58.951Z,54.93
2023-05-10T06:13:29.946Z,54.94
2023-05-10T06:15:57.694Z,54.09
2023-05-10T06:18:25.572Z,54.14
2023-05-10T06:20:53.278Z,54.03
2023-05-10T06:23:20.908Z,54.16
2023-05-10T06:25:48.543Z,53.84
2023-05-10T06:28:16.209Z,53.57
2023-05-10T06:30:44.362Z,53.61
2023-05-10T06:33:12.094Z,53.38
2023-05-10T06:35:40.014Z,52.94
2023-05-10T06:38:07.673Z,52.60
2023-05-10T06:40:35.345Z,51.87
2023-05-10T06:43:03.005Z,51.19
2023-05-10T06:45:30.603Z,50.43
2023-05-10T06:47:58.293Z,50.26
2023-05-10T06:50:26.353Z,50.05
2023-05-10T06:52:54.103Z,50.13
2023-05-10T06:55:21.844Z,49.52
2023-05-10T06:57:49.558Z,49.56
2023-05-10T07:00:18.448Z,48.66
2023-05-10T07:02:46.606Z,48.41
2023-05-10T07:05:15.254Z,47.83
2023-05-10T07:07:43.392Z,46.45
2023-05-10T07:10:11.179Z,47.49
2023-05-10T07:12:39.495Z,47.49
2023-05-10T07:15:08.244Z,45.80
2023-05-10T07:17:35.940Z,45.91
2023-05-10T07:20:04.890Z,45.82
2023-05-10T07:22:32.461Z,45.48
2023-05-10T07:25:00.055Z,45.32
2023-05-10T07:27:27.669Z,45.28
2023-05-10T07:29:55.743Z,44.80
2023-05-10T07:32:23.545Z,44.06
2023-05-10T07:34:51.396Z,42.61
2023-05-10T07:37:19.556Z,42.86
2023-05-10T07:39:47.375Z,43.11
2023-05-10T07:42:15.057Z,42.34
2023-05-10T07:44:42.919Z,42.38
2023-05-10T07:47:10.743Z,41.91
2023-05-10T07:49:39.376Z,41.48
2023-05-10T07:52:07.005Z,41.69
2023-05-10T07:54:34.928Z,41.83
2023-05-10T07:57:02.600Z,41.56
2023-05-10T07:59:30.203Z,39.94
2023-05-10T08:01:57.824Z,39.29
2023-05-10T08:04:25.551Z,39.06
2023-05-10T08:06:53.245Z,38.81
2023-05-10T08:09:24.886Z,39.52
2023-05-10T08:11:52.880Z,38.91
2023-05-10T08:14:20.708Z,39.62
2023-05-10T08:16:48.326Z,39.63
2023-05-10T08:19:20.026Z,39.13
2023-05-10T08:21:48.222Z,38.70
2023-05-10T08:24:16.071Z,38.30
2023-05-10T08:26:43.720Z,38.51
2023-05-10T08:29:11.344Z,38.81
2023-05-10T08:31:39.052Z,39.26
2023-05-10T08:34:06.947Z,39.74
2023-05-10T08:36:34.608Z,39.43
2023-05-10T08:39:02.223Z,38.62
2023-05-10T08:41:29.909Z,38.24
2023-05-10T08:43:57.559Z,38.99
2023-05-10T08:46:27.592Z,38.01
2023-05-10T08:48:55.787Z,38.23
2023-05-10T08:51:24.955Z,37.95
2023-05-10T08:53:52.656Z,38.28
2023-05-10T08:56:21.367Z,39.12
2023-05-10T08:58:49.993Z,39.26
2023-05-10T09:01:18.242Z,36.77
2023-05-10T09:03:47.488Z,37.13
2023-05-10T09:06:15.485Z,35.92
2023-05-10T09:08:43.841Z,36.11
2023-05-10T09:11:13.682Z,36.09
2023-05-10T09:13:41.316Z,37.08
2023-05-10T09:16:20.276Z,37.56
2023-05-10T09:18:48.835Z,36.29
2023-05-10T09:21:16.498Z,36.37
2023-05-10T09:23:48.037Z,36.17
2023-05-10T09:26:16.377Z,35.56
2023-05-10T09:28:54.244Z,35.10
2023-05-10T09:31:22.210Z,35.22
2023-05-10T09:33:50.649Z,35.52
2023-05-10T09:36:18.442Z,34.67
2023-05-10T09:38:50.470Z,34.08
2023-05-10T09:41:23.484Z,34.49
2023-05-10T09:43:51.462Z,33.76
2023-05-10T09:46:19.205Z,33.94
2023-05-10T09:48:48.621Z,33.14
2023-05-10T09:51:26.301Z,33.92
2023-05-10T09:54:14.203Z,34.89
2023-05-10T09:56:42.131Z,34.15
2023-05-10T09:59:13.149Z,32.95
2023-05-10T10:01:41.745Z,32.93
2023-05-10T10:04:10.547Z,31.41
2023-05-10T10:06:41.421Z,30.09
2023-05-10T10:09:09.557Z,30.42
2023-05-10T10:11:37.947Z,30.36
2023-05-10T10:14:06.312Z,30.20
2023-05-10T10:16:33.998Z,30.15
2023-05-10T10:19:01.879Z,29.55
2023-05-10T10:21:29.611Z,28.79
2023-05-10T10:23:57.253Z,29.64
2023-05-10T10:26:24.932Z,29.27
2023-05-10T10:29:08.283Z,29.17
2023-05-10T10:32:03.334Z,28.21
2023-05-10T10:34:30.999Z,28.67
2023-05-10T10:36:58.820Z,28.70
2023-05-10T10:39:26.676Z,28.81
2023-05-10T10:41:55.841Z,28.52
2023-05-10T10:44:23.633Z,28.25
2023-05-10T10:47:24.241Z,28.08
2023-05-10T10:49:53.619Z,27.14
2023-05-10T10:52:33.968Z,26.40
2023-05-10T10:55:12.258Z,26.24
2023-05-10T10:57:50.136Z,26.08
2023-05-10T11:00:24.582Z,26.31
2023-05-10T11:02:56.078Z,25.13
2023-05-10T11:05:30.123Z,25.83
2023-05-10T11:08:00.038Z,26.83
2023-05-10T11:10:28.214Z,27.25
2023-05-10T11:13:02.623Z,27.80
2023-05-10T11:15:31.907Z,26.96
2023-05-10T11:17:59.648Z,27.75
2023-05-10T11:20:34.524Z,27.21
2023-05-10T11:23:13.008Z,26.26
2023-05-10T11:25:45.079Z,25.26
2023-05-10T11:28:13.032Z,25.89
2023-05-10T11:30:41.364Z,26.31
2023-05-10T11:33:09.606Z,26.10
2023-05-10T11:35:43.216Z,25.17
2023-05-10T11:38:11.925Z,24.56
2023-05-10T11:40:40.190Z,24.45
2023-05-10T11:43:09.513Z,24.64
2023-05-10T11:45:37.258Z,25.22
2023-05-10T11:48:05.291Z,24.63
2023-05-10T11:50:33.613Z,24.49
2023-05-10T11:53:01.288Z,24.30
2023-05-10T11:55:31.194Z,24.38
2023-05-10T11:58:01.712Z,24.80
2023-05-10T12:00:29.533Z,23.77
2023-05-10T12:02:57.674Z,22.75
2023-05-10T12:05:25.413Z,23.73
2023-05-10T12:07:53.019Z,22.83
2023-05-10T12:10:27.475Z,23.15
2023-05-10T12:12:55.262Z,23.44
2023-05-10T12:15:24.497Z,24.16
2023-05-10T12:17:52.360Z,24.47
2023-05-10T12:20:22.019Z,24.59
2023-05-10T12:22:58.922Z,24.90
2023-05-10T12:25:30.682Z,25.23
2023-05-10T12:27:59.026Z,25.05
2023-05-10T12:30:27.631Z,25.16
2023-05-10T12:33:00.511Z,25.16
2023-05-10T12:35:31.537Z,24.55
2023-05-10T12:37:59.285Z,24.57
2023-05-10T12:40:26.937Z,24.84
2023-05-10T12:42:54.564Z,23.62
2023-05-10T12:45:23.126Z,23.53
2023-05-10T12:47:50.802Z,22.87
2023-05-10T12:50:18.740Z,23.74
2023-05-10T12:52:46.533Z,24.21
2023-05-10T12:55:14.110Z,23.85
2023-05-10T12:57:41.754Z,23.46
2023-05-10T13:00:10.012Z,23.62
2023-05-10T13:02:37.823Z,24.27
2023-05-10T13:05:06.654Z,24.18
2023-05-10T13:07:34.447Z,24.17
2023-05-10T13:10:02.079Z,23.01
2023-05-10T13:12:30.360Z,22.93
2023-05-10T13:14:57.974Z,22.90
2023-05-10T13:17:26.497Z,22.04
2023-05-10T13:19:54.336Z,21.85
2023-05-10T13:22:32.459Z,22.79
2023-05-10T13:25:04.933Z,23.34
2023-05-10T13:27:32.533Z,23.90
2023-05-10T13:30:00.578Z,23.71
2023-05-10T13:32:28.274Z,24.14
2023-05-10T13:34:56.320Z,23.79
2023-05-10T13:37:24.038Z,23.08
2023-05-10T13:39:51.710Z,22.85
2023-05-10T13:42:19.406Z,22.82
2023-05-10T13:44:47.293Z,23.06
2023-05-10T13:47:14.876Z,23.49
2023-05-10T13:49:42.688Z,23.33
2023-05-10T13:52:11.148Z,23.88
2023-05-10T13:54:39.248Z,23.03
2023-05-10T13:57:07.650Z,23.28
2023-05-10T13:59:35.531Z,22.96
2023-05-10T14:02:03.679Z,22.11
2023-05-10T14:04:31.538Z,22.02
2023-05-10T14:06:59.237Z,22.10
2023-05-10T14:09:26.895Z,21.89
2023-05-10T14:11:54.563Z,21.61
2023-05-10T14:14:22.191Z,21.67
2023-05-10T14:16:49.874Z,21.95
2023-05-10T14:19:17.536Z,22.23
2023-05-10T14:21:45.402Z,22.07
2023-05-10T14:24:13.008Z,21.54
2023-05-10T14:26:40.630Z,22.45
2023-05-10T14:29:10.046Z,23.02
2023-05-10T14:31:40.014Z,22.57
2023-05-10T14:34:07.798Z,22.64
2023-05-10T14:36:38.141Z,22.65
2023-05-10T14:39:05.958Z,22.27
2023-05-10T14:41:34.102Z,21.24
2023-05-10T14:44:02.536Z,21.89
2023-05-10T14:46:31.067Z,22.17
2023-05-10T14:48:58.715Z,22.88
2023-05-10T14:51:26.318Z,23.75
2023-05-10T14:53:53.943Z,23.64
2023-05-10T14:56:22.418Z,23.75
2023-05-10T14:58:50.987Z,24.62
2023-05-10T15:01:20.080Z,24.75
2023-05-10T15:03:48.262Z,24.80
2023-05-10T15:06:19.614Z,25.15
2023-05-10T15:08:47.215Z,25.13
2023-05-10T15:11:14.840Z,25.04
2023-05-10T15:13:42.529Z,24.86
2023-05-10T15:16:10.498Z,25.33
2023-05-10T15:18:38.372Z,25.59
2023-05-10T15:21:06.214Z,26.10
2023-05-10T15:23:33.956Z,26.31
2023-05-10T15:26:01.831Z,26.54
2023-05-10T15:28:29.695Z,26.52
2023-05-10T15:30:57.570Z,26.75
2023-05-10T15:33:25.943Z,26.48
2023-05-10T15:35:54.714Z,26.61
2023-05-10T15:38:22.453Z,26.69
2023-05-10T15:40:50.167Z,27.20
2023-05-10T15:43:17.924Z,26.98
2023-05-10T15:45:45.555Z,27.20
2023-05-10T15:48:13.287Z,27.27
2023-05-10T15:50:41.419Z,27.57
2023-05-10T15:53:09.098Z,27.83
2023-05-10T15:55:37.543Z,27.93
2023-05-10T15:58:05.184Z,27.94
2023-05-10T16:00:32.829Z,28.19
2023-05-10T16:03:00.908Z,28.33
2023-05-10T16:05:32.624Z,28.25
2023-05-10T16:08:01.803Z,28.56
2023-05-10T16:10:33.144Z,28.99
2023-05-10T16:13:02.440Z,28.88
2023-05-10T16:15:30.068Z,29.08
2023-05-10T16:17:58.272Z,29.15
2023-05-10T16:20:26.766Z,29.51
2023-05-10T16:22:54.554Z,29.60
2023-05-10T16:25:22.424Z,29.72
2023-05-10T16:27:51.012Z,29.81
2023-05-10T16:30:18.778Z,29.91
2023-05-10T16:32:46.467Z,29.86
2023-05-10T16:35:14.242Z,30.14
2023-05-10T16:37:42.064Z,30.68
2023-05-10T16:40:10.552Z,30.62
2023-05-10T16:42:38.188Z,30.65
2023-05-10T16:45:09.964Z,30.77
2023-05-10T16:47:38.483Z,30.77
2023-05-10T16:50:07.656Z,30.76
2023-05-10T16:52:36.250Z,30.93
2023-05-10T16:55:04.602Z,31.18
2023-05-10T16:57:33.093Z,31.05
2023-05-10T17:00:01.121Z,31.38
2023-05-10T17:02:28.950Z,31.64
2023-05-10T17:04:56.995Z,31.92
2023-05-10T17:07:26.267Z,32.18
2023-05-10T17:09:54.040Z,32.11
2023-05-10T17:12:21.820Z,32.28
2023-05-10T17:14:49.554Z,32.30
2023-05-10T17:17:17.466Z,32.18
2023-05-10T17:19:45.866Z,31.95
2023-05-10T17:22:14.152Z,31.81
2023-05-10T17:24:41.896Z,31.71
2023-05-10T17:27:09.860Z,31.24
2023-05-10T17:29:37.732Z,31.11
2023-05-10T17:32:06.069Z,31.13
2023-05-10T17:34:33.876Z,31.04
2023-05-10T17:37:02.452Z,31.07
2023-05-10T17:39:30.518Z,31.13
2023-05-10T17:41:58.194Z,31.33
2023-05-10T17:44:26.165Z,31.69
2023-05-10T17:46:53.938Z,31.82
2023-05-10T17:49:21.603Z,32.11
2023-05-10T17:51:49.382Z,32.40
2023-05-10T17:54:17.197Z,32.75
2023-05-10T17:56:45.070Z,32.91
2023-05-10T17:59:12.813Z,33.28
2023-05-10T18:01:43.285Z,33.57
2023-05-10T18:04:11.299Z,33.83
2023-05-10T18:06:42.310Z,34.12
2023-05-10T18:09:12.138Z,34.32
2023-05-10T18:11:40.219Z,34.50
2023-05-10T18:14:07.886Z,34.63
2023-05-10T18:16:35.637Z,35.01
2023-05-10T18:19:03.967Z,35.22
2023-05-10T18:21:31.893Z,35.36
2023-05-10T18:23:59.934Z,35.52
2023-05-10T18:26:27.956Z,35.81
2023-05-10T18:28:55.633Z,36.07
2023-05-10T18:31:24.032Z,36.26
2023-05-10T18:33:52.215Z,36.30
2023-05-10T18:36:19.844Z,36.65
2023-05-10T18:38:47.641Z,36.73
2023-05-10T18:41:15.771Z,36.99
2023-05-10T18:43:43.770Z,37.31
2023-05-10T18:46:11.610Z,37.26
2023-05-10T18:48:39.514Z,37.61
2023-05-10T18:51:07.386Z,37.82
2023-05-10T18:53:35.464Z,37.94
2023-05-10T18:56:03.607Z,38.37
2023-05-10T18:58:31.454Z,38.22
2023-05-10T19:00:59.263Z,38.49
2023-05-10T19:03:27.304Z,38.81
2023-05-10T19:05:54.961Z,38.70
2023-05-10T19:08:23.045Z,39.11
2023-05-10T19:10:50.804Z,39.28
2023-05-10T19:13:18.568Z,39.31
2023-05-10T19:15:46.588Z,39.51
2023-05-10T19:18:16.148Z,39.56
2023-05-10T19:20:46.009Z,39.81
2023-05-10T19:23:16.506Z,40.24
2023-05-10T19:25:44.691Z,40.19
2023-05-10T19:28:12.829Z,40.48
2023-05-10T19:30:40.607Z,40.72
2023-05-10T19:33:10.211Z,41.04
2023-05-10T19:35:37.999Z,41.34
2023-05-10T19:38:05.626Z,41.17
2023-05-10T19:40:33.442Z,41.25
2023-05-10T19:43:01.127Z,41.46
2023-05-10T19:45:28.937Z,41.72
2023-05-10T19:47:56.599Z,41.74
2023-05-10T19:50:24.357Z,41.71
2023-05-10T19:52:52.514Z,41.68
2023-05-10T19:55:30.621Z,41.82
2023-05-10T19:58:00.636Z,41.91
2023-05-10T20:00:28.373Z,41.86
2023-05-10T20:02:56.069Z,42.17
2023-05-10T20:05:23.831Z,42.17
2023-05-10T20:07:51.693Z,41.98
2023-05-10T20:10:19.773Z,41.99
2023-05-10T20:12:52.477Z,42.04
2023-05-10T20:15:21.877Z,42.08
2023-05-10T20:17:51.274Z,42.24
2023-05-10T20:20:20.445Z,42.19
2023-05-10T20:22:48.578Z,42.18
2023-05-10T20:25:17.077Z,42.10
2023-05-10T20:27:44.788Z,42.36
2023-05-10T20:30:13.078Z,42.34
2023-05-10T20:32:40.954Z,42.45
2023-05-10T20:35:09.409Z,42.45
2023-05-10T20:37:37.896Z,42.23
2023-05-10T20:40:06.126Z,42.40
2023-05-10T20:42:33.723Z,42.37
2023-05-10T20:45:01.590Z,42.53
2023-05-10T20:47:29.223Z,42.70
2023-05-10T20:49:56.847Z,42.57
2023-05-10T20:52:24.733Z,42.82
2023-05-10T20:54:52.346Z,42.89
2023-05-10T20:57:20.206Z,42.81
2023-05-10T20:59:49.923Z,42.93
2023-05-10T21:02:17.681Z,43.03
2023-05-10T21:04:45.331Z,42.91
2023-05-10T21:07:13.038Z,42.99
2023-05-10T21:09:40.630Z,43.20
2023-05-10T21:12:09.166Z,43.09
2023-05-10T21:14:36.789Z,43.12
2023-05-10T21:17:04.476Z,43.35
2023-05-10T21:19:32.174Z,43.48
2023-05-10T21:21:59.856Z,43.64
2023-05-10T21:24:27.534Z,43.84
2023-05-10T21:26:55.141Z,44.01
2023-05-10T21:29:22.736Z,44.02
2023-05-10T21:31:50.603Z,44.10
2023-05-10T21:34:18.318Z,44.36
2023-05-10T21:36:45.995Z,44.17
2023-05-10T21:39:13.851Z,44.14
2023-05-10T21:41:42.139Z,44.53
2023-05-10T21:44:09.822Z,44.46
2023-05-10T21:46:37.426Z,44.83
2023-05-10T21:49:05.109Z,45.04
2023-05-10T21:51:32.708Z,44.73
2023-05-10T21:54:00.301Z,44.90
2023-05-10T21:56:27.914Z,45.37
2023-05-10T21:58:55.767Z,45.34
2023-05-10T22:01:23.487Z,45.35
2023-05-10T22:03:51.240Z,45.54
2023-05-10T22:06:18.907Z,45.69
2023-05-10T22:08:46.480Z,45.43
2023-05-10T22:11:14.094Z,45.54
2023-05-10T22:13:41.684Z,45.60
2023-05-10T22:16:09.304Z,45.79
2023-05-10T22:18:36.966Z,45.88
2023-05-10T22:21:04.783Z,46.22
2023-05-10T22:23:32.484Z,46.43
2023-05-10T22:26:02.700Z,46.39
2023-05-10T22:28:30.471Z,46.83
2023-05-10T22:30:58.191Z,47.03
2023-05-10T22:33:25.898Z,47.16
2023-05-10T22:35:53.559Z,47.07
2023-05-10T22:38:21.506Z,47.30
2023-05-10T22:40:49.159Z,47.28
2023-05-10T22:43:17.259Z,47.58
2023-05-10T22:45:44.864Z,47.47
2023-05-10T22:48:12.690Z,47.67
2023-05-10T22:50:40.285Z,47.98
2023-05-10T22:53:08.051Z,47.78
2023-05-10T22:55:36.514Z,48.12
2023-05-10T22:58:04.098Z,48.44
2023-05-10T23:00:31.788Z,48.30
2023-05-10T23:03:00.010Z,48.26
2023-05-10T23:05:27.977Z,48.33
2023-05-10T23:07:55.581Z,48.35
2023-05-10T23:10:23.385Z,48.37
2023-05-10T23:12:51.461Z,48.60
2023-05-10T23:15:19.074Z,48.51
2023-05-10T23:17:47.087Z,48.60
2023-05-10T23:20:16.172Z,49.13
2023-05-10T23:22:44.168Z,49.32
2023-05-10T23:25:11.814Z,49.09
2023-05-10T23:27:39.404Z,49.35
2023-05-10T23:30:07.982Z,49.46
2023-05-10T23:32:35.883Z,49.60
2023-05-10T23:35:03.759Z,49.38
2023-05-10T23:37:31.375Z,49.82
2023-05-10T23:39:59.104Z,49.58
2023-05-10T23:42:26.895Z,49.46
2023-05-10T23:44:54.673Z,49.78
2023-05-10T23:47:22.297Z,50.01
2023-05-10T23:49:50.314Z,50.19
2023-05-10T23:52:17.955Z,50.29
2023-05-10T23:54:46.043Z,50.62
2023-05-10T23:57:13.943Z,50.65
2023-05-10T23:59:41.559Z,50.67
